sensor_id;sensor_type;location;lat;lon;timestamp;temperature;humidity
48752;DHT22;34544;48.836;9.174;2023-02-24T00:02:22;10.30;99.90
48752;DHT22;34544;48.836;9.174;2023-02-24T00:04:48;10.30;99.90
48752;DHT22;34544;48.836;9.174;2023-02-24T00:07:17;10.30;99.90
48752;DHT22;34544;48.836;9.174;2023-02-24T00:09:43;10.30;99.90
48752;DHT22;34544;48.836;9.174;2023-02-24T00:12:14;10.30;99.90
48752;DHT22;34544;48.836;9.174;2023-02-24T00:14:44;10.20;99.90
48752;DHT22;34544;48.836;9.174;2023-02-24T00:17:10;10.20;99.90
48752;DHT22;34544;48.836;9.174;2023-02-24T00:19:38;10.20;99.90
48752;DHT22;34544;48.836;9.174;2023-02-24T00:22:06;10.20;99.90
48752;DHT22;34544;48.836;9.174;2023-02-24T00:24:33;10.20;99.90
48752;DHT22;34544;48.836;9.174;2023-02-24T00:27:01;10.20;99.90
48752;DHT22;34544;48.836;9.174;2023-02-24T00:29:32;10.20;99.90
48752;DHT22;34544;48.836;9.174;2023-02-24T00:31:58;10.20;99.90
48752;DHT22;34544;48.836;9.174;2023-02-24T00:34:25;10.20;99.90
48752;DHT22;34544;48.836;9.174;2023-02-24T00:36:54;10.20;99.90
48752;DHT22;34544;48.836;9.174;2023-02-24T00:39:19;10.10;99.90
48752;DHT22;34544;48.836;9.174;2023-02-24T00:41:54;10.10;99.90
48752;DHT22;34544;48.836;9.174;2023-02-24T00:44:28;10.10;99.90
48752;DHT22;34544;48.836;9.174;2023-02-24T00:46:58;10.00;99.90
48752;DHT22;34544;48.836;9.174;2023-02-24T00:49:27;10.00;99.90
48752;DHT22;34544;48.836;9.174;2023-02-24T00:51:54;10.00;99.90
48752;DHT22;34544;48.836;9.174;2023-02-24T00:54:21;10.00;99.90
48752;DHT22;34544;48.836;9.174;2023-02-24T00:56:49;10.00;99.90
48752;DHT22;34544;48.836;9.174;2023-02-24T00:59:16;10.00;99.90
48752;DHT22;34544;48.836;9.174;2023-02-24T01:01:43;10.00;99.90
48752;DHT22;34544;48.836;9.174;2023-02-24T01:04:15;10.00;99.90
48752;DHT22;34544;48.836;9.174;2023-02-24T01:06:48;10.00;99.90
48752;DHT22;34544;48.836;9.174;2023-02-24T01:09:18;9.90;99.90
48752;DHT22;34544;48.836;9.174;2023-02-24T01:11:46;9.90;99.90
48752;DHT22;34544;48.836;9.174;2023-02-24T01:14:32;9.90;99.90
48752;DHT22;34544;48.836;9.174;2023-02-24T01:16:59;9.80;99.90
48752;DHT22;34544;48.836;9.174;2023-02-24T01:19:27;9.80;99.90
48752;DHT22;34544;48.836;9.174;2023-02-24T01:22:05;9.80;99.90
48752;DHT22;34544;48.836;9.174;2023-02-24T01:24:34;9.80;99.90
48752;DHT22;34544;48.836;9.174;2023-02-24T01:27:00;9.80;99.90
48752;DHT22;34544;48.836;9.174;2023-02-24T01:29:27;9.80;99.90
48752;DHT22;34544;48.836;9.174;2023-02-24T01:31:52;9.70;99.90
48752;DHT22;34544;48.836;9.174;2023-02-24T01:34:24;9.70;99.90
48752;DHT22;34544;48.836;9.174;2023-02-24T01:36:51;9.70;99.90
48752;DHT22;34544;48.836;9.174;2023-02-24T01:39:18;9.70;99.90
48752;DHT22;34544;48.836;9.174;2023-02-24T01:41:47;9.70;99.90
48752;DHT22;34544;48.836;9.174;2023-02-24T01:46:47;9.70;99.90
48752;DHT22;34544;48.836;9.174;2023-02-24T01:51:48;9.70;99.90
48752;DHT22;34544;48.836;9.174;2023-02-24T01:54:18;9.70;99.90
48752;DHT22;34544;48.836;9.174;2023-02-24T01:56:50;9.70;99.90
48752;DHT22;34544;48.836;9.174;2023-02-24T01:59:18;9.70;99.90
48752;DHT22;34544;48.836;9.174;2023-02-24T02:01:46;9.70;99.90
48752;DHT22;34544;48.836;9.174;2023-02-24T02:06:46;9.70;99.90
48752;DHT22;34544;48.836;9.174;2023-02-24T02:09:13;9.70;99.90
48752;DHT22;34544;48.836;9.174;2023-02-24T02:11:41;9.70;99.90
48752;DHT22;34544;48.836;9.174;2023-02-24T02:14:07;9.70;99.90
48752;DHT22;34544;48.836;9.174;2023-02-24T02:22:40;9.60;99.90
48752;DHT22;34544;48.836;9.174;2023-02-24T02:25:22;9.60;99.90
48752;DHT22;34544;48.836;9.174;2023-02-24T02:30:46;9.60;99.90
48752;DHT22;34544;48.836;9.174;2023-02-24T02:36:29;9.60;99.90
48752;DHT22;34544;48.836;9.174;2023-02-24T02:39:04;9.60;99.90
48752;DHT22;34544;48.836;9.174;2023-02-24T02:44:22;9.60;99.90
48752;DHT22;34544;48.836;9.174;2023-02-24T02:49:42;9.60;99.90
48752;DHT22;34544;48.836;9.174;2023-02-24T02:52:25;9.50;99.90
48752;DHT22;34544;48.836;9.174;2023-02-24T02:55:02;9.50;99.90
48752;DHT22;34544;48.836;9.174;2023-02-24T02:57:33;9.40;99.90
48752;DHT22;34544;48.836;9.174;2023-02-24T03:00:05;9.40;99.90
48752;DHT22;34544;48.836;9.174;2023-02-24T03:02:42;9.40;99.90
48752;DHT22;34544;48.836;9.174;2023-02-24T03:05:10;9.30;99.90
48752;DHT22;34544;48.836;9.174;2023-02-24T03:07:44;9.30;99.90
48752;DHT22;34544;48.836;9.174;2023-02-24T03:10:19;9.30;99.90
48752;DHT22;34544;48.836;9.174;2023-02-24T03:12:51;9.20;99.90
48752;DHT22;34544;48.836;9.174;2023-02-24T03:15:19;9.20;99.90
48752;DHT22;34544;48.836;9.174;2023-02-24T03:17:51;9.20;99.90
48752;DHT22;34544;48.836;9.174;2023-02-24T03:20:25;9.20;99.90
48752;DHT22;34544;48.836;9.174;2023-02-24T03:23:01;9.20;99.90
48752;DHT22;34544;48.836;9.174;2023-02-24T03:25:41;9.20;99.90
48752;DHT22;34544;48.836;9.174;2023-02-24T03:28:21;9.20;99.90
48752;DHT22;34544;48.836;9.174;2023-02-24T03:31:00;9.20;99.90
48752;DHT22;34544;48.836;9.174;2023-02-24T03:33:35;9.20;99.90
48752;DHT22;34544;48.836;9.174;2023-02-24T03:36:02;9.20;99.90
48752;DHT22;34544;48.836;9.174;2023-02-24T03:38:31;9.20;99.90
48752;DHT22;34544;48.836;9.174;2023-02-24T03:40:58;9.20;99.90
48752;DHT22;34544;48.836;9.174;2023-02-24T03:43:31;9.30;99.90
48752;DHT22;34544;48.836;9.174;2023-02-24T03:45:59;9.30;99.90
48752;DHT22;34544;48.836;9.174;2023-02-24T03:48:29;9.30;99.90
48752;DHT22;34544;48.836;9.174;2023-02-24T03:50:57;9.20;99.90
48752;DHT22;34544;48.836;9.174;2023-02-24T04:02:42;9.30;99.90
48752;DHT22;34544;48.836;9.174;2023-02-24T04:05:14;9.30;99.90
48752;DHT22;34544;48.836;9.174;2023-02-24T04:08:00;9.30;99.90
48752;DHT22;34544;48.836;9.174;2023-02-24T04:10:50;9.30;99.90
48752;DHT22;34544;48.836;9.174;2023-02-24T04:16:15;9.20;99.90
48752;DHT22;34544;48.836;9.174;2023-02-24T04:18:48;9.30;99.90
48752;DHT22;34544;48.836;9.174;2023-02-24T04:21:16;9.20;99.90
48752;DHT22;34544;48.836;9.174;2023-02-24T04:23:44;9.20;99.90
48752;DHT22;34544;48.836;9.174;2023-02-24T04:26:12;9.20;99.90
48752;DHT22;34544;48.836;9.174;2023-02-24T04:28:41;9.20;99.90
48752;DHT22;34544;48.836;9.174;2023-02-24T04:31:10;9.10;99.90
48752;DHT22;34544;48.836;9.174;2023-02-24T04:33:44;9.10;99.90
48752;DHT22;34544;48.836;9.174;2023-02-24T04:36:20;9.10;99.90
48752;DHT22;34544;48.836;9.174;2023-02-24T04:38:47;9.10;99.90
48752;DHT22;34544;48.836;9.174;2023-02-24T04:41:14;9.10;99.90
48752;DHT22;34544;48.836;9.174;2023-02-24T04:43:48;9.10;99.90
48752;DHT22;34544;48.836;9.174;2023-02-24T04:46:16;9.10;99.90
48752;DHT22;34544;48.836;9.174;2023-02-24T04:48:42;9.10;99.90
48752;DHT22;34544;48.836;9.174;2023-02-24T04:51:07;9.10;99.90
48752;DHT22;34544;48.836;9.174;2023-02-24T04:53:33;9.00;99.90
48752;DHT22;34544;48.836;9.174;2023-02-24T04:56:03;9.10;99.90
48752;DHT22;34544;48.836;9.174;2023-02-24T04:58:34;9.00;99.90
48752;DHT22;34544;48.836;9.174;2023-02-24T05:01:08;9.00;99.90
48752;DHT22;34544;48.836;9.174;2023-02-24T05:03:38;9.00;99.90
48752;DHT22;34544;48.836;9.174;2023-02-24T05:06:10;9.00;99.90
48752;DHT22;34544;48.836;9.174;2023-02-24T05:08:38;9.00;99.90
48752;DHT22;34544;48.836;9.174;2023-02-24T05:11:04;9.00;99.90
48752;DHT22;34544;48.836;9.174;2023-02-24T05:13:31;9.00;99.90
48752;DHT22;34544;48.836;9.174;2023-02-24T05:16:02;9.00;99.90
48752;DHT22;34544;48.836;9.174;2023-02-24T05:18:28;8.90;99.90
48752;DHT22;34544;48.836;9.174;2023-02-24T05:21:04;8.90;99.90
48752;DHT22;34544;48.836;9.174;2023-02-24T05:23:51;9.00;99.90
48752;DHT22;34544;48.836;9.174;2023-02-24T05:26:18;9.00;99.90
48752;DHT22;34544;48.836;9.174;2023-02-24T05:28:47;9.00;99.90
48752;DHT22;34544;48.836;9.174;2023-02-24T05:31:16;9.00;99.90
48752;DHT22;34544;48.836;9.174;2023-02-24T05:33:44;9.00;99.90
48752;DHT22;34544;48.836;9.174;2023-02-24T05:36:12;9.00;99.90
48752;DHT22;34544;48.836;9.174;2023-02-24T05:38:43;8.90;99.90
48752;DHT22;34544;48.836;9.174;2023-02-24T05:41:11;9.00;99.90
48752;DHT22;34544;48.836;9.174;2023-02-24T05:43:45;9.00;99.90
48752;DHT22;34544;48.836;9.174;2023-02-24T05:46:22;9.00;99.90
48752;DHT22;34544;48.836;9.174;2023-02-24T05:48:57;9.00;99.90
48752;DHT22;34544;48.836;9.174;2023-02-24T05:51:31;9.00;99.90
48752;DHT22;34544;48.836;9.174;2023-02-24T05:54:11;9.00;99.90
48752;DHT22;34544;48.836;9.174;2023-02-24T05:56:39;9.00;99.90
48752;DHT22;34544;48.836;9.174;2023-02-24T05:59:10;8.90;99.90
48752;DHT22;34544;48.836;9.174;2023-02-24T06:01:38;9.00;99.90
48752;DHT22;34544;48.836;9.174;2023-02-24T06:04:07;9.00;99.90
48752;DHT22;34544;48.836;9.174;2023-02-24T06:06:40;8.90;99.90
48752;DHT22;34544;48.836;9.174;2023-02-24T06:09:09;8.90;99.90
48752;DHT22;34544;48.836;9.174;2023-02-24T06:11:40;8.90;99.90
48752;DHT22;34544;48.836;9.174;2023-02-24T06:14:07;8.90;99.90
48752;DHT22;34544;48.836;9.174;2023-02-24T06:16:34;8.90;99.90
48752;DHT22;34544;48.836;9.174;2023-02-24T06:19:01;8.90;99.90
48752;DHT22;34544;48.836;9.174;2023-02-24T06:21:26;8.90;99.90
48752;DHT22;34544;48.836;9.174;2023-02-24T06:23:56;8.90;99.90
48752;DHT22;34544;48.836;9.174;2023-02-24T06:26:25;8.90;99.90
48752;DHT22;34544;48.836;9.174;2023-02-24T06:28:55;8.90;99.90
48752;DHT22;34544;48.836;9.174;2023-02-24T06:31:22;8.90;99.90
48752;DHT22;34544;48.836;9.174;2023-02-24T06:33:48;8.90;99.90
48752;DHT22;34544;48.836;9.174;2023-02-24T06:36:14;8.90;99.90
48752;DHT22;34544;48.836;9.174;2023-02-24T06:38:40;8.90;99.90
48752;DHT22;34544;48.836;9.174;2023-02-24T06:41:06;8.90;99.90
48752;DHT22;34544;48.836;9.174;2023-02-24T06:43:39;8.90;99.90
48752;DHT22;34544;48.836;9.174;2023-02-24T06:46:06;8.90;99.90
48752;DHT22;34544;48.836;9.174;2023-02-24T06:48:33;8.80;99.90
48752;DHT22;34544;48.836;9.174;2023-02-24T06:51:09;8.90;99.90
48752;DHT22;34544;48.836;9.174;2023-02-24T06:53:36;8.90;99.90
48752;DHT22;34544;48.836;9.174;2023-02-24T06:56:12;8.80;99.90
48752;DHT22;34544;48.836;9.174;2023-02-24T06:58:46;8.80;99.90
48752;DHT22;34544;48.836;9.174;2023-02-24T07:01:21;8.90;99.90
48752;DHT22;34544;48.836;9.174;2023-02-24T07:03:51;8.90;99.90
48752;DHT22;34544;48.836;9.174;2023-02-24T07:06:46;8.80;99.90
48752;DHT22;34544;48.836;9.174;2023-02-24T07:09:15;8.80;99.90
48752;DHT22;34544;48.836;9.174;2023-02-24T07:11:44;8.90;99.90
48752;DHT22;34544;48.836;9.174;2023-02-24T07:14:17;8.90;99.90
48752;DHT22;34544;48.836;9.174;2023-02-24T07:16:43;8.90;99.90
48752;DHT22;34544;48.836;9.174;2023-02-24T07:19:14;8.90;99.90
48752;DHT22;34544;48.836;9.174;2023-02-24T07:21:41;8.90;99.90
48752;DHT22;34544;48.836;9.174;2023-02-24T07:24:19;8.90;99.90
48752;DHT22;34544;48.836;9.174;2023-02-24T07:27:16;8.90;99.90
48752;DHT22;34544;48.836;9.174;2023-02-24T07:29:49;9.00;99.90
48752;DHT22;34544;48.836;9.174;2023-02-24T07:32:15;9.00;99.90
48752;DHT22;34544;48.836;9.174;2023-02-24T07:34:43;9.00;99.90
48752;DHT22;34544;48.836;9.174;2023-02-24T07:37:09;9.10;99.90
48752;DHT22;34544;48.836;9.174;2023-02-24T07:39:36;9.10;99.90
48752;DHT22;34544;48.836;9.174;2023-02-24T07:42:04;9.10;99.90
48752;DHT22;34544;48.836;9.174;2023-02-24T07:44:37;9.20;99.90
48752;DHT22;34544;48.836;9.174;2023-02-24T07:47:03;9.20;99.90
48752;DHT22;34544;48.836;9.174;2023-02-24T07:49:32;9.20;99.90
48752;DHT22;34544;48.836;9.174;2023-02-24T07:51:58;9.20;99.90
48752;DHT22;34544;48.836;9.174;2023-02-24T07:54:26;9.20;99.90
48752;DHT22;34544;48.836;9.174;2023-02-24T07:56:55;9.20;99.90
48752;DHT22;34544;48.836;9.174;2023-02-24T07:59:31;9.20;99.90
48752;DHT22;34544;48.836;9.174;2023-02-24T08:01:58;9.20;99.90
48752;DHT22;34544;48.836;9.174;2023-02-24T08:04:27;9.10;99.90
48752;DHT22;34544;48.836;9.174;2023-02-24T08:06:55;9.20;99.90
48752;DHT22;34544;48.836;9.174;2023-02-24T08:09:29;9.20;99.90
48752;DHT22;34544;48.836;9.174;2023-02-24T08:12:21;9.30;99.90
48752;DHT22;34544;48.836;9.174;2023-02-24T08:14:49;9.40;99.90
48752;DHT22;34544;48.836;9.174;2023-02-24T08:17:20;9.40;99.90
48752;DHT22;34544;48.836;9.174;2023-02-24T08:19:48;9.50;99.90
48752;DHT22;34544;48.836;9.174;2023-02-24T08:22:14;9.50;99.90
48752;DHT22;34544;48.836;9.174;2023-02-24T08:24:52;9.50;99.90
48752;DHT22;34544;48.836;9.174;2023-02-24T08:27:21;9.60;99.90
48752;DHT22;34544;48.836;9.174;2023-02-24T08:29:50;9.70;99.90
48752;DHT22;34544;48.836;9.174;2023-02-24T08:35:00;9.70;99.90
48752;DHT22;34544;48.836;9.174;2023-02-24T08:37:32;9.70;99.90
48752;DHT22;34544;48.836;9.174;2023-02-24T08:40:06;9.80;99.90
48752;DHT22;34544;48.836;9.174;2023-02-24T08:42:33;9.90;99.90
48752;DHT22;34544;48.836;9.174;2023-02-24T08:45:03;9.90;99.90
48752;DHT22;34544;48.836;9.174;2023-02-24T08:47:28;9.90;99.90
48752;DHT22;34544;48.836;9.174;2023-02-24T08:50:00;9.90;99.90
48752;DHT22;34544;48.836;9.174;2023-02-24T08:52:27;10.00;99.90
48752;DHT22;34544;48.836;9.174;2023-02-24T08:54:53;10.10;99.90
48752;DHT22;34544;48.836;9.174;2023-02-24T08:57:25;10.10;99.90
48752;DHT22;34544;48.836;9.174;2023-02-24T08:59:51;10.20;99.90
48752;DHT22;34544;48.836;9.174;2023-02-24T09:02:23;10.40;99.90
48752;DHT22;34544;48.836;9.174;2023-02-24T09:04:54;10.40;99.90
48752;DHT22;34544;48.836;9.174;2023-02-24T09:07:24;10.50;99.90
48752;DHT22;34544;48.836;9.174;2023-02-24T09:09:51;10.60;99.90
48752;DHT22;34544;48.836;9.174;2023-02-24T09:12:22;10.60;99.90
48752;DHT22;34544;48.836;9.174;2023-02-24T09:14:56;10.70;99.90
48752;DHT22;34544;48.836;9.174;2023-02-24T09:17:27;10.70;99.90
48752;DHT22;34544;48.836;9.174;2023-02-24T09:20:16;10.70;99.90
48752;DHT22;34544;48.836;9.174;2023-02-24T09:23:01;10.70;99.90
48752;DHT22;34544;48.836;9.174;2023-02-24T09:25:34;10.70;99.90
48752;DHT22;34544;48.836;9.174;2023-02-24T09:28:14;10.80;99.90
48752;DHT22;34544;48.836;9.174;2023-02-24T09:33:24;10.80;99.90
48752;DHT22;34544;48.836;9.174;2023-02-24T09:36:02;10.80;99.90
48752;DHT22;34544;48.836;9.174;2023-02-24T09:41:37;10.90;99.90
48752;DHT22;34544;48.836;9.174;2023-02-24T09:44:29;11.00;99.90
48752;DHT22;34544;48.836;9.174;2023-02-24T09:50:04;11.20;99.90
48752;DHT22;34544;48.836;9.174;2023-02-24T09:52:31;11.30;99.90
48752;DHT22;34544;48.836;9.174;2023-02-24T09:55:22;11.40;99.90
48752;DHT22;34544;48.836;9.174;2023-02-24T10:06:49;11.60;99.90
48752;DHT22;34544;48.836;9.174;2023-02-24T10:09:31;11.70;99.90
48752;DHT22;34544;48.836;9.174;2023-02-24T10:12:05;11.70;99.90
48752;DHT22;34544;48.836;9.174;2023-02-24T10:15:08;11.60;99.90
48752;DHT22;34544;48.836;9.174;2023-02-24T10:17:53;11.60;99.90
48752;DHT22;34544;48.836;9.174;2023-02-24T10:20:25;11.70;99.90
48752;DHT22;34544;48.836;9.174;2023-02-24T10:23:17;11.60;99.90
48752;DHT22;34544;48.836;9.174;2023-02-24T10:26:18;11.60;99.90
48752;DHT22;34544;48.836;9.174;2023-02-24T10:31:49;11.60;99.90
48752;DHT22;34544;48.836;9.174;2023-02-24T10:34:25;11.60;99.90
48752;DHT22;34544;48.836;9.174;2023-02-24T10:37:11;11.50;99.90
48752;DHT22;34544;48.836;9.174;2023-02-24T10:39:37;11.40;99.90
48752;DHT22;34544;48.836;9.174;2023-02-24T10:42:08;11.40;99.90
48752;DHT22;34544;48.836;9.174;2023-02-24T10:44:40;11.30;99.90
48752;DHT22;34544;48.836;9.174;2023-02-24T10:47:23;11.30;99.90
48752;DHT22;34544;48.836;9.174;2023-02-24T10:50:00;11.20;99.90
48752;DHT22;34544;48.836;9.174;2023-02-24T10:52:32;11.20;99.90
48752;DHT22;34544;48.836;9.174;2023-02-24T10:58:34;11.20;99.90
48752;DHT22;34544;48.836;9.174;2023-02-24T11:03:53;11.10;99.90
48752;DHT22;34544;48.836;9.174;2023-02-24T11:06:38;11.10;99.90
48752;DHT22;34544;48.836;9.174;2023-02-24T11:09:04;11.20;99.90
48752;DHT22;34544;48.836;9.174;2023-02-24T11:11:45;11.10;99.90
48752;DHT22;34544;48.836;9.174;2023-02-24T11:14:30;11.10;99.90
48752;DHT22;34544;48.836;9.174;2023-02-24T11:17:20;11.10;99.90
48752;DHT22;34544;48.836;9.174;2023-02-24T11:20:04;11.10;99.90
48752;DHT22;34544;48.836;9.174;2023-02-24T11:22:39;11.10;99.90
48752;DHT22;34544;48.836;9.174;2023-02-24T11:25:11;10.90;99.90
48752;DHT22;34544;48.836;9.174;2023-02-24T11:27:40;10.80;99.90
48752;DHT22;34544;48.836;9.174;2023-02-24T11:38:45;10.80;99.90
48752;DHT22;34544;48.836;9.174;2023-02-24T11:41:22;10.80;99.90
48752;DHT22;34544;48.836;9.174;2023-02-24T11:46:42;10.70;99.90
48752;DHT22;34544;48.836;9.174;2023-02-24T11:49:47;10.70;99.90
48752;DHT22;34544;48.836;9.174;2023-02-24T11:52:17;10.70;99.90
48752;DHT22;34544;48.836;9.174;2023-02-24T11:54:51;10.70;99.90
48752;DHT22;34544;48.836;9.174;2023-02-24T11:57:22;10.60;99.90
48752;DHT22;34544;48.836;9.174;2023-02-24T11:59:53;10.50;99.90
48752;DHT22;34544;48.836;9.174;2023-02-24T12:02:52;10.50;99.90
48752;DHT22;34544;48.836;9.174;2023-02-24T12:05:25;10.50;99.90
48752;DHT22;34544;48.836;9.174;2023-02-24T12:07:54;10.50;99.90
48752;DHT22;34544;48.836;9.174;2023-02-24T12:10:31;10.50;99.90
48752;DHT22;34544;48.836;9.174;2023-02-24T12:15:46;10.60;99.90
48752;DHT22;34544;48.836;9.174;2023-02-24T12:18:23;10.70;99.90
48752;DHT22;34544;48.836;9.174;2023-02-24T12:23:44;10.90;99.90
48752;DHT22;34544;48.836;9.174;2023-02-24T12:26:22;11.20;99.90
48752;DHT22;34544;48.836;9.174;2023-02-24T12:37:41;12.20;99.90
48752;DHT22;34544;48.836;9.174;2023-02-24T12:40:26;12.30;99.90
48752;DHT22;34544;48.836;9.174;2023-02-24T12:43:16;12.50;99.90
48752;DHT22;34544;48.836;9.174;2023-02-24T12:45:52;12.60;99.90
48752;DHT22;34544;48.836;9.174;2023-02-24T12:53:33;13.10;99.90
48752;DHT22;34544;48.836;9.174;2023-02-24T12:56:20;13.40;99.90
48752;DHT22;34544;48.836;9.174;2023-02-24T12:58:51;13.60;99.90
48752;DHT22;34544;48.836;9.174;2023-02-24T13:04:48;13.80;99.90
48752;DHT22;34544;48.836;9.174;2023-02-24T13:10:42;13.60;99.90
48752;DHT22;34544;48.836;9.174;2023-02-24T13:13:19;13.40;99.90
48752;DHT22;34544;48.836;9.174;2023-02-24T13:15:55;13.20;99.90
48752;DHT22;34544;48.836;9.174;2023-02-24T13:18:33;13.10;99.90
48752;DHT22;34544;48.836;9.174;2023-02-24T13:21:17;13.00;99.90
48752;DHT22;34544;48.836;9.174;2023-02-24T13:23:53;12.90;99.90
48752;DHT22;34544;48.836;9.174;2023-02-24T13:26:24;12.80;99.90
48752;DHT22;34544;48.836;9.174;2023-02-24T13:29:08;12.70;99.90
48752;DHT22;34544;48.836;9.174;2023-02-24T13:31:47;12.60;99.90
48752;DHT22;34544;48.836;9.174;2023-02-24T13:34:32;12.50;99.90
48752;DHT22;34544;48.836;9.174;2023-02-24T13:36:58;12.40;99.90
48752;DHT22;34544;48.836;9.174;2023-02-24T13:39:35;12.30;99.90
48752;DHT22;34544;48.836;9.174;2023-02-24T13:42:40;12.20;99.90
48752;DHT22;34544;48.836;9.174;2023-02-24T13:47:59;12.00;99.90
48752;DHT22;34544;48.836;9.174;2023-02-24T14:03:27;12.00;99.90
48752;DHT22;34544;48.836;9.174;2023-02-24T14:05:53;12.00;99.90
48752;DHT22;34544;48.836;9.174;2023-02-24T14:08:43;12.00;99.90
48752;DHT22;34544;48.836;9.174;2023-02-24T14:11:13;11.90;99.90
48752;DHT22;34544;48.836;9.174;2023-02-24T14:13:40;11.90;99.90
48752;DHT22;34544;48.836;9.174;2023-02-24T14:16:09;11.90;99.90
48752;DHT22;34544;48.836;9.174;2023-02-24T14:18:35;11.80;99.90
48752;DHT22;34544;48.836;9.174;2023-02-24T14:21:02;11.80;99.90
48752;DHT22;34544;48.836;9.174;2023-02-24T14:23:30;11.70;99.90
48752;DHT22;34544;48.836;9.174;2023-02-24T14:26:05;11.70;99.90
48752;DHT22;34544;48.836;9.174;2023-02-24T14:28:37;11.60;99.90
48752;DHT22;34544;48.836;9.174;2023-02-24T14:31:10;11.60;99.90
48752;DHT22;34544;48.836;9.174;2023-02-24T14:33:38;11.50;99.90
48752;DHT22;34544;48.836;9.174;2023-02-24T14:36:15;11.50;99.90
48752;DHT22;34544;48.836;9.174;2023-02-24T14:38:43;11.40;99.90
48752;DHT22;34544;48.836;9.174;2023-02-24T14:41:22;11.40;99.90
48752;DHT22;34544;48.836;9.174;2023-02-24T14:43:48;11.40;99.90
48752;DHT22;34544;48.836;9.174;2023-02-24T14:46:15;11.30;99.90
48752;DHT22;34544;48.836;9.174;2023-02-24T14:48:42;11.20;99.90
48752;DHT22;34544;48.836;9.174;2023-02-24T14:54:17;11.10;99.90
48752;DHT22;34544;48.836;9.174;2023-02-24T14:56:44;11.00;99.90
48752;DHT22;34544;48.836;9.174;2023-02-24T14:59:35;11.00;99.90
48752;DHT22;34544;48.836;9.174;2023-02-24T15:02:05;10.90;99.90
48752;DHT22;34544;48.836;9.174;2023-02-24T15:04:39;10.90;99.90
48752;DHT22;34544;48.836;9.174;2023-02-24T15:07:18;10.90;99.90
48752;DHT22;34544;48.836;9.174;2023-02-24T15:09:47;10.80;99.90
48752;DHT22;34544;48.836;9.174;2023-02-24T15:14:42;10.80;99.90
48752;DHT22;34544;48.836;9.174;2023-02-24T15:17:16;10.80;99.90
48752;DHT22;34544;48.836;9.174;2023-02-24T15:19:43;10.70;99.90
48752;DHT22;34544;48.836;9.174;2023-02-24T15:24:47;10.70;99.90
48752;DHT22;34544;48.836;9.174;2023-02-24T15:29:40;10.70;99.90
48752;DHT22;34544;48.836;9.174;2023-02-24T15:32:15;10.70;99.90
48752;DHT22;34544;48.836;9.174;2023-02-24T15:34:45;10.70;99.90
48752;DHT22;34544;48.836;9.174;2023-02-24T15:37:32;10.60;99.90
48752;DHT22;34544;48.836;9.174;2023-02-24T15:40:16;10.60;99.90
48752;DHT22;34544;48.836;9.174;2023-02-24T15:43:06;10.60;99.90
48752;DHT22;34544;48.836;9.174;2023-02-24T15:45:34;10.60;99.90
48752;DHT22;34544;48.836;9.174;2023-02-24T15:48:01;10.60;99.90
48752;DHT22;34544;48.836;9.174;2023-02-24T15:50:29;10.50;99.90
48752;DHT22;34544;48.836;9.174;2023-02-24T15:52:56;10.50;99.90
48752;DHT22;34544;48.836;9.174;2023-02-24T15:55:23;10.50;99.90
48752;DHT22;34544;48.836;9.174;2023-02-24T15:58:01;10.50;99.90
48752;DHT22;34544;48.836;9.174;2023-02-24T16:00:27;10.40;99.90
48752;DHT22;34544;48.836;9.174;2023-02-24T16:02:53;10.40;99.90
48752;DHT22;34544;48.836;9.174;2023-02-24T16:05:19;10.40;99.90
48752;DHT22;34544;48.836;9.174;2023-02-24T16:07:45;10.40;99.90
48752;DHT22;34544;48.836;9.174;2023-02-24T16:10:23;10.30;99.90
48752;DHT22;34544;48.836;9.174;2023-02-24T16:12:55;10.30;99.90
48752;DHT22;34544;48.836;9.174;2023-02-24T16:15:25;10.30;99.90
48752;DHT22;34544;48.836;9.174;2023-02-24T16:17:51;10.30;99.90
48752;DHT22;34544;48.836;9.174;2023-02-24T16:20:21;10.20;99.90
48752;DHT22;34544;48.836;9.174;2023-02-24T16:22:57;10.20;99.90
48752;DHT22;34544;48.836;9.174;2023-02-24T16:25:24;10.20;99.90
48752;DHT22;34544;48.836;9.174;2023-02-24T16:27:50;10.20;99.90
48752;DHT22;34544;48.836;9.174;2023-02-24T16:30:23;10.20;99.90
48752;DHT22;34544;48.836;9.174;2023-02-24T16:32:49;10.20;99.90
48752;DHT22;34544;48.836;9.174;2023-02-24T16:35:15;10.20;99.90
48752;DHT22;34544;48.836;9.174;2023-02-24T16:37:40;10.10;99.90
48752;DHT22;34544;48.836;9.174;2023-02-24T16:40:17;10.10;99.90
48752;DHT22;34544;48.836;9.174;2023-02-24T16:42:45;10.10;99.90
48752;DHT22;34544;48.836;9.174;2023-02-24T16:45:10;10.10;99.90
48752;DHT22;34544;48.836;9.174;2023-02-24T16:47:36;10.10;99.90
48752;DHT22;34544;48.836;9.174;2023-02-24T16:50:02;10.00;99.90
48752;DHT22;34544;48.836;9.174;2023-02-24T16:52:27;10.00;99.90
48752;DHT22;34544;48.836;9.174;2023-02-24T16:54:53;10.00;99.90
48752;DHT22;34544;48.836;9.174;2023-02-24T16:57:20;10.00;99.90
48752;DHT22;34544;48.836;9.174;2023-02-24T16:59:50;9.90;99.90
48752;DHT22;34544;48.836;9.174;2023-02-24T17:02:20;9.90;99.90
48752;DHT22;34544;48.836;9.174;2023-02-24T17:04:46;9.80;99.90
48752;DHT22;34544;48.836;9.174;2023-02-24T17:07:12;9.90;99.90
48752;DHT22;34544;48.836;9.174;2023-02-24T17:09:40;9.80;99.90
48752;DHT22;34544;48.836;9.174;2023-02-24T17:12:06;9.80;99.90
48752;DHT22;34544;48.836;9.174;2023-02-24T17:14:35;9.70;99.90
48752;DHT22;34544;48.836;9.174;2023-02-24T17:17:01;9.70;99.90
48752;DHT22;34544;48.836;9.174;2023-02-24T17:19:26;9.70;99.90
48752;DHT22;34544;48.836;9.174;2023-02-24T17:21:52;9.70;99.90
48752;DHT22;34544;48.836;9.174;2023-02-24T17:24:19;9.70;99.90
48752;DHT22;34544;48.836;9.174;2023-02-24T17:26:45;9.70;99.90
48752;DHT22;34544;48.836;9.174;2023-02-24T17:29:11;9.60;99.90
48752;DHT22;34544;48.836;9.174;2023-02-24T17:31:38;9.60;99.90
48752;DHT22;34544;48.836;9.174;2023-02-24T17:34:05;9.60;99.90
48752;DHT22;34544;48.836;9.174;2023-02-24T17:36:31;9.60;99.90
48752;DHT22;34544;48.836;9.174;2023-02-24T17:38:56;9.60;99.90
48752;DHT22;34544;48.836;9.174;2023-02-24T17:41:23;9.60;99.90
48752;DHT22;34544;48.836;9.174;2023-02-24T17:43:50;9.60;99.90
48752;DHT22;34544;48.836;9.174;2023-02-24T17:46:16;9.60;99.90
48752;DHT22;34544;48.836;9.174;2023-02-24T17:48:42;9.60;99.90
48752;DHT22;34544;48.836;9.174;2023-02-24T17:51:12;9.50;99.90
48752;DHT22;34544;48.836;9.174;2023-02-24T17:53:38;9.50;99.90
48752;DHT22;34544;48.836;9.174;2023-02-24T17:56:05;9.50;99.90
48752;DHT22;34544;48.836;9.174;2023-02-24T17:58:31;9.50;99.90
48752;DHT22;34544;48.836;9.174;2023-02-24T18:00:57;9.50;99.90
48752;DHT22;34544;48.836;9.174;2023-02-24T18:03:23;9.50;99.90
48752;DHT22;34544;48.836;9.174;2023-02-24T18:05:57;9.50;99.90
48752;DHT22;34544;48.836;9.174;2023-02-24T18:08:23;9.50;99.90
48752;DHT22;34544;48.836;9.174;2023-02-24T18:10:49;9.50;99.90
48752;DHT22;34544;48.836;9.174;2023-02-24T18:13:14;9.50;99.90
48752;DHT22;34544;48.836;9.174;2023-02-24T18:15:40;9.40;99.90
48752;DHT22;34544;48.836;9.174;2023-02-24T18:18:05;9.40;99.90
48752;DHT22;34544;48.836;9.174;2023-02-24T18:20:31;9.40;99.90